METAR Data
IDs: Format: Raw Decoded Include TAF

Data at: 0203 UTC 01 Mar 2021

KBNW 010155Z AUTO 31010G16KT 10SM CLR M02/M02 A3009 RMK AO2